Time;durP1;ratioP1;P1;durP2;ratioP2;P2;SDS_P1;SDS_P2;PMS_P1;PMS_P2;Temp;Humidity;BMP_temperature;BMP_pressure;BME280_temperature;BME280_humidity;BME280_pressure;Samples;Min_cycle;Max_cycle;Signal;HPM_P1;HPM_P2
2023/12/10 00:01:27;;;;;;;3.63;3.42;;;11.80;99.90;;;;;;5087271;28;20054;-94
2023/12/10 00:03:54;;;;;;;3.50;3.30;;;11.80;99.90;;;;;;5075701;28;20043;-92
2023/12/10 00:06:35;;;;;;;3.20;3.00;;;11.80;99.90;;;;;;5075639;28;20058;-94
2023/12/10 00:09:15;;;;;;;3.65;3.45;;;11.80;99.90;;;;;;5095378;27;20390;-95
2023/12/10 00:11:55;;;;;;;3.20;3.00;;;11.80;99.90;;;;;;5088834;27;20051;-94
2023/12/10 00:14:36;;;;;;;3.20;3.00;;;11.80;99.90;;;;;;5089737;27;20073;-94
2023/12/10 00:17:01;;;;;;;3.13;2.92;;;11.80;99.90;;;;;;5085548;27;20039;-92
2023/12/10 00:19:39;;;;;;;3.28;3.08;;;11.80;99.90;;;;;;5087092;28;20055;-93
2023/12/10 00:22:17;;;;;;;3.60;3.40;;;11.90;99.90;;;;;;5088355;27;20412;-92
2023/12/10 00:24:48;;;;;;;3.40;3.20;;;11.90;99.90;;;;;;5089756;27;20112;-96
2023/12/10 00:27:23;;;;;;;3.30;3.10;;;11.90;99.90;;;;;;5103394;27;20488;-96
2023/12/10 00:29:49;;;;;;;3.58;3.38;;;12.00;99.90;;;;;;5086223;27;20089;-94
2023/12/10 00:32:24;;;;;;;3.70;3.50;;;12.00;99.90;;;;;;5085819;27;20067;-93
2023/12/10 00:34:52;;;;;;;3.60;3.40;;;12.00;99.90;;;;;;5087680;27;20039;-93
2023/12/10 00:37:18;;;;;;;3.40;3.20;;;12.00;99.90;;;;;;5086887;27;20043;-93
2023/12/10 00:39:44;;;;;;;3.20;3.00;;;11.90;99.90;;;;;;5092442;27;20058;-94
2023/12/10 00:42:10;;;;;;;3.83;3.63;;;11.90;99.90;;;;;;5096810;27;20438;-91
2023/12/10 00:44:35;;;;;;;3.50;3.30;;;11.90;99.90;;;;;;5093958;27;20039;-92
2023/12/10 00:47:14;;;;;;;3.13;2.92;;;11.90;99.90;;;;;;5094382;27;20046;-90
2023/12/10 00:49:40;;;;;;;3.20;3.00;;;11.80;99.90;;;;;;5093541;27;20043;-91
2023/12/10 00:52:05;;;;;;;3.30;3.10;;;11.80;99.90;;;;;;5094223;27;20043;-91
2023/12/10 00:54:33;;;;;;;4.00;3.80;;;11.90;99.90;;;;;;5096417;27;20040;-93
2023/12/10 00:57:02;;;;;;;3.83;3.63;;;11.90;99.90;;;;;;5091607;27;20032;-92
2023/12/10 00:59:30;;;;;;;3.67;3.47;;;11.90;99.90;;;;;;5087985;27;20069;-94
2023/12/10 01:01:57;;;;;;;3.92;3.72;;;11.80;99.90;;;;;;5084496;27;20043;-91
2023/12/10 01:04:29;;;;;;;3.22;3.03;;;11.90;99.90;;;;;;5086278;28;20842;-93
2023/12/10 01:06:57;;;;;;;4.13;3.92;;;11.90;99.90;;;;;;5087399;28;20043;-93
2023/12/10 01:09:26;;;;;;;3.50;3.30;;;11.80;99.90;;;;;;5088388;28;21350;-92
2023/12/10 01:11:52;;;;;;;3.63;3.42;;;11.80;99.90;;;;;;5098389;27;20042;-92
2023/12/10 01:14:33;;;;;;;3.65;3.45;;;11.80;99.90;;;;;;5100505;28;20039;-94
2023/12/10 01:17:10;;;;;;;4.05;3.85;;;11.70;99.90;;;;;;5117222;27;20040;-93
2023/12/10 01:19:50;;;;;;;3.65;3.45;;;11.70;99.90;;;;;;5093388;27;20053;-93
2023/12/10 01:22:16;;;;;;;3.72;3.53;;;11.70;99.90;;;;;;5096666;27;20081;-93
2023/12/10 01:24:52;;;;;;;4.15;3.95;;;11.70;99.90;;;;;;5094284;27;20054;-93
2023/12/10 01:27:18;;;;;;;3.97;3.78;;;11.60;99.90;;;;;;5091696;28;20148;-91
2023/12/10 01:29:47;;;;;;;3.65;3.45;;;11.60;99.90;;;;;;5106122;27;20058;-94
2023/12/10 01:32:34;;;;;;;3.80;3.60;;;11.60;99.90;;;;;;5095317;27;20134;-94
2023/12/10 01:35:00;;;;;;;3.88;3.67;;;11.60;99.90;;;;;;5110312;28;20545;-95
2023/12/10 01:37:55;;;;;;;3.95;3.75;;;11.50;99.90;;;;;;5097877;28;20229;-92
2023/12/10 01:40:32;;;;;;;4.28;4.07;;;11.50;99.90;;;;;;5057207;28;20496;-91
2023/12/10 01:43:11;;;;;;;3.92;3.72;;;11.50;99.90;;;;;;5124408;28;20035;-94
2023/12/10 01:46:04;;;;;;;4.20;4.00;;;11.50;99.90;;;;;;5091294;28;20035;-95
2023/12/10 01:48:49;;;;;;;4.00;3.80;;;11.50;99.90;;;;;;5091148;28;20066;-95
2023/12/10 01:51:21;;;;;;;3.92;3.72;;;11.40;99.90;;;;;;5091315;28;20040;-94
2023/12/10 01:53:50;;;;;;;4.25;4.05;;;11.50;99.90;;;;;;5090554;28;20043;-94
2023/12/10 01:56:16;;;;;;;4.15;3.95;;;11.40;99.90;;;;;;5091040;28;20100;-90
2023/12/10 01:58:42;;;;;;;4.45;4.22;;;11.40;99.90;;;;;;5091985;28;20133;-93
2023/12/10 02:01:15;;;;;;;4.22;4.03;;;11.40;99.90;;;;;;5090621;28;20453;-91
2023/12/10 02:03:41;;;;;;;3.85;3.65;;;11.50;99.90;;;;;;5106201;28;20093;-93
2023/12/10 02:06:07;;;;;;;4.65;4.35;;;11.40;99.90;;;;;;5090403;28;20123;-89
2023/12/10 02:09:21;;;;;;;4.25;4.05;;;11.40;99.90;;;;;;5099244;28;20047;-95
2023/12/10 02:11:34;;;;;;;4.15;3.95;;;11.40;99.90;;;;;;5104596;28;20039;-91
2023/12/10 02:14:06;;;;;;;4.70;4.40;;;11.50;99.90;;;;;;5091294;28;20492;-92
2023/12/10 02:16:40;;;;;;;4.90;4.60;;;11.40;99.90;;;;;;5089155;28;20035;-92
2023/12/10 02:22:24;;;;;;;4.18;3.97;;;11.40;99.90;;;;;;5107108;28;20047;-94
2023/12/10 02:25:06;;;;;;;4.00;3.80;;;11.50;99.90;;;;;;5090556;28;20118;-95
2023/12/10 02:27:35;;;;;;;4.15;3.95;;;11.50;99.90;;;;;;5106938;28;20039;-95
2023/12/10 02:30:25;;;;;;;3.75;3.55;;;11.40;99.90;;;;;;5107362;28;20051;-95
2023/12/10 02:33:02;;;;;;;3.92;3.72;;;11.60;99.90;;;;;;5097891;28;20055;-93
2023/12/10 02:35:28;;;;;;;4.00;3.80;;;11.50;99.90;;;;;;5096347;28;20047;-90
2023/12/10 02:37:57;;;;;;;3.90;3.70;;;11.60;99.90;;;;;;5091521;28;20040;-93
2023/12/10 02:40:44;;;;;;;4.25;4.05;;;11.40;99.90;;;;;;5091065;28;20046;-92
2023/12/10 02:43:31;;;;;;;;;;;;;;;;;;;;;
2023/12/10 02:46:15;;;;;;;4.20;4.00;;;11.50;99.90;;;;;;5134135;27;20051;-94
2023/12/10 02:48:44;;;;;;;3.95;3.75;;;11.60;99.90;;;;;;5082429;27;20108;-92
2023/12/10 02:51:22;;;;;;;3.95;3.75;;;11.40;99.90;;;;;;5083875;27;20047;-95
2023/12/10 02:53:51;;;;;;;3.90;3.70;;;11.50;99.90;;;;;;5082630;27;20035;-93
2023/12/10 02:56:17;;;;;;;4.30;4.10;;;11.50;99.90;;;;;;5104876;27;20059;-95
2023/12/10 02:58:43;;;;;;;4.40;4.18;;;11.40;99.90;;;;;;5095983;27;20044;-91
2023/12/10 03:01:12;;;;;;;4.55;4.30;;;11.50;99.90;;;;;;5096817;27;20047;-93
2023/12/10 03:03:49;;;;;;;3.95;3.75;;;11.50;99.90;;;;;;5110445;27;20076;-94
2023/12/10 03:06:24;;;;;;;4.65;4.38;;;11.50;99.90;;;;;;5088686;27;20061;-95
2023/12/10 03:08:56;;;;;;;3.95;3.75;;;11.50;99.90;;;;;;5098487;27;20127;-96
2023/12/10 03:11:54;;;;;;;3.95;3.75;;;11.60;99.90;;;;;;5095124;27;20035;-95
2023/12/10 03:14:22;;;;;;;4.05;3.85;;;11.50;99.90;;;;;;5098890;27;20225;-93
2023/12/10 03:17:12;;;;;;;3.70;3.50;;;11.50;99.90;;;;;;5092669;27;20054;-92
2023/12/10 03:19:38;;;;;;;4.05;3.85;;;11.50;99.90;;;;;;5108726;27;20130;-91
2023/12/10 03:22:15;;;;;;;4.05;3.85;;;11.50;99.90;;;;;;5093235;27;20069;-96
2023/12/10 03:24:57;;;;;;;4.22;4.03;;;11.50;99.90;;;;;;5086853;28;20044;-93
2023/12/10 03:27:25;;;;;;;3.78;3.58;;;11.50;99.90;;;;;;5102525;27;20103;-90
2023/12/10 03:29:57;;;;;;;4.00;3.80;;;11.40;99.90;;;;;;5089441;27;20035;-95
2023/12/10 03:32:52;;;;;;;4.20;4.00;;;11.30;99.90;;;;;;5091744;27;20489;-91
2023/12/10 03:35:30;;;;;;;4.20;4.00;;;11.30;99.90;;;;;;5133294;27;20079;-94
2023/12/10 03:37:59;;;;;;;4.10;3.90;;;11.50;99.90;;;;;;5092437;27;20043;-95
2023/12/10 03:40:41;;;;;;;3.90;3.70;;;11.40;99.90;;;;;;5094069;27;20137;-94
2023/12/10 03:43:22;;;;;;;4.30;4.10;;;11.60;99.90;;;;;;5107670;27;20055;-93
2023/12/10 03:46:10;;;;;;;4.10;3.90;;;11.30;99.90;;;;;;5092494;27;20081;-90
2023/12/10 03:51:42;;;;;;;3.80;3.60;;;11.40;99.90;;;;;;5078852;27;20047;-95
2023/12/10 03:54:11;;;;;;;4.13;3.92;;;11.40;99.90;;;;;;5093971;27;21250;-94
2023/12/10 03:56:42;;;;;;;4.55;4.25;;;11.40;99.90;;;;;;5109048;27;20120;-96
2023/12/10 03:59:17;;;;;;;4.65;4.35;;;11.20;99.90;;;;;;5092314;27;20047;-94
2023/12/10 04:01:47;;;;;;;4.22;4.03;;;11.30;99.90;;;;;;5090148;27;20059;-95
2023/12/10 04:04:12;;;;;;;3.92;3.72;;;11.30;99.90;;;;;;5102509;27;20043;-90
2023/12/10 04:06:51;;;;;;;4.60;4.30;;;11.40;99.90;;;;;;5093978;27;20069;-92
2023/12/10 04:09:22;;;;;;;3.97;3.78;;;11.40;99.90;;;;;;5098096;27;20110;-90
2023/12/10 04:14:55;;;;;;;5.18;4.88;;;11.40;99.90;;;;;;5112482;27;20047;-92
2023/12/10 04:17:44;;;;;;;4.05;3.85;;;11.40;99.90;;;;;;5112797;27;20047;-94
2023/12/10 04:20:23;;;;;;;4.25;4.05;;;11.30;99.90;;;;;;5106453;27;20051;-94
2023/12/10 04:22:49;;;;;;;4.38;4.18;;;11.50;99.90;;;;;;5095777;27;20077;-93
2023/12/10 04:25:18;;;;;;;4.05;3.85;;;11.20;99.90;;;;;;5112703;27;20051;-94
2023/12/10 04:27:49;;;;;;;4.05;3.85;;;11.40;99.90;;;;;;5098338;27;20082;-94
2023/12/10 04:30:19;;;;;;;4.03;3.83;;;11.30;99.90;;;;;;5095900;27;20122;-93
2023/12/10 04:32:46;;;;;;;4.13;3.92;;;11.50;99.90;;;;;;5093146;27;20065;-95
2023/12/10 04:35:12;;;;;;;4.00;3.80;;;11.30;99.90;;;;;;5092674;27;20084;-91
2023/12/10 04:37:44;;;;;;;4.55;4.25;;;11.30;99.90;;;;;;5110463;27;20072;-93
2023/12/10 04:40:19;;;;;;;4.07;3.88;;;11.20;99.90;;;;;;5090668;27;20054;-92
2023/12/10 04:42:45;;;;;;;4.32;4.13;;;11.30;99.90;;;;;;5096125;27;20051;-94
2023/12/10 04:45:46;;;;;;;4.13;3.92;;;11.30;99.90;;;;;;5094480;27;20050;-96
2023/12/10 04:48:18;;;;;;;4.85;4.55;;;11.50;99.90;;;;;;5036778;28;20044;-89
2023/12/10 04:54:03;;;;;;;3.90;3.70;;;11.40;99.90;;;;;;5145444;27;20097;-91
2023/12/10 04:56:35;;;;;;;4.03;3.83;;;11.30;99.90;;;;;;5095018;27;20050;-94
2023/12/10 04:59:00;;;;;;;4.00;3.80;;;11.70;99.90;;;;;;5099964;27;20083;-96
2023/12/10 05:04:13;;;;;;;4.22;4.03;;;11.50;99.90;;;;;;5108427;27;20043;-95
2023/12/10 05:07:15;;;;;;;3.92;3.72;;;11.40;99.90;;;;;;5104351;27;20081;-95
2023/12/10 05:10:00;;;;;;;4.57;4.32;;;11.70;99.90;;;;;;5111244;27;20063;-95
2023/12/10 05:12:36;;;;;;;4.15;3.95;;;11.70;99.90;;;;;;5109993;27;20043;-94
2023/12/10 05:18:06;;;;;;;4.22;4.03;;;11.40;99.90;;;;;;5023898;28;20050;-94
2023/12/10 05:20:41;;;;;;;4.18;3.97;;;11.50;99.90;;;;;;5123829;27;20138;-95
2023/12/10 05:23:11;;;;;;;4.22;4.03;;;11.50;99.90;;;;;;5127339;27;20043;-94
2023/12/10 05:25:43;;;;;;;4.13;3.92;;;11.70;99.90;;;;;;5113725;27;20039;-95
2023/12/10 05:28:32;;;;;;;4.18;3.97;;;11.50;99.90;;;;;;5098429;27;20096;-93
2023/12/10 05:31:04;;;;;;;5.13;4.82;;;11.70;99.90;;;;;;5112779;28;20038;-95
2023/12/10 05:33:51;;;;;;;3.97;3.78;;;11.40;99.90;;;;;;5102184;27;20047;-96
2023/12/10 05:36:30;;;;;;;4.05;3.85;;;11.80;99.90;;;;;;5115340;27;20095;-96
2023/12/10 05:38:56;;;;;;;4.22;4.03;;;11.80;99.90;;;;;;5093233;28;20106;-93
2023/12/10 05:41:50;;;;;;;4.60;4.35;;;11.70;99.90;;;;;;5094231;28;20054;-95
2023/12/10 05:44:51;;;;;;;4.20;3.97;;;11.50;99.90;;;;;;5099138;27;20122;-94
2023/12/10 05:47:26;;;;;;;4.25;4.03;;;11.50;99.90;;;;;;5108526;28;20053;-94
2023/12/10 05:50:07;;;;;;;4.35;4.13;;;11.90;99.90;;;;;;5092718;28;20259;-96
2023/12/10 05:56:04;;;;;;;5.03;4.72;;;11.50;99.90;;;;;;5049430;28;20048;-93
2023/12/10 05:59:33;;;;;;;;;;;;;;;;;;;;;
2023/12/10 06:04:58;;;;;;;4.22;4.03;;;11.70;99.90;;;;;;5028490;28;20525;-93
2023/12/10 06:07:50;;;;;;;4.10;3.90;;;11.90;99.90;;;;;;5027034;28;20519;-95
2023/12/10 06:10:29;;;;;;;8.40;7.80;;;11.80;99.90;;;;;;4995893;28;20059;-90
2023/12/10 06:13:23;;;;;;;4.50;4.25;;;11.80;99.90;;;;;;5089125;28;20051;-93
2023/12/10 06:16:22;;;;;;;;;;;;;;;;;;;;;
2023/12/10 06:19:17;;;;;;;4.55;4.30;;;12.00;99.90;;;;;;5145944;27;20107;-96
2023/12/10 06:22:03;;;;;;;4.40;4.15;;;11.80;99.90;;;;;;5094113;27;20055;-96
2023/12/10 06:24:47;;;;;;;4.60;4.35;;;11.70;99.90;;;;;;5113553;27;21014;-95
2023/12/10 06:27:16;;;;;;;4.72;4.45;;;11.70;99.90;;;;;;5091610;27;20039;-90
2023/12/10 06:30:08;;;;;;;4.55;4.30;;;12.00;99.90;;;;;;5102258;27;20046;-94
2023/12/10 06:32:35;;;;;;;4.50;4.25;;;11.80;99.90;;;;;;5092482;27;20066;-92
2023/12/10 06:35:01;;;;;;;4.72;4.45;;;11.90;99.90;;;;;;5094545;27;20062;-94
2023/12/10 06:37:50;;;;;;;4.63;4.35;;;11.80;99.90;;;;;;5098029;27;20047;-94
2023/12/10 06:40:44;;;;;;;4.40;4.15;;;11.90;99.90;;;;;;5095052;27;20050;-95
2023/12/10 06:43:24;;;;;;;5.80;5.50;;;12.10;99.90;;;;;;5130803;27;20150;-93
2023/12/10 06:46:34;;;;;;;4.50;4.25;;;12.10;99.90;;;;;;5094628;27;20045;-95
2023/12/10 06:49:09;;;;;;;4.82;4.53;;;11.70;99.90;;;;;;5100969;27;20043;-92
2023/12/10 06:51:41;;;;;;;5.00;4.70;;;12.20;99.90;;;;;;5094021;27;20103;-92
2023/12/10 06:54:16;;;;;;;4.95;4.65;;;11.80;99.90;;;;;;5105282;27;20504;-94
2023/12/10 06:56:42;;;;;;;5.00;4.70;;;11.80;99.90;;;;;;5099679;27;20043;-94
2023/12/10 06:59:07;;;;;;;4.80;4.50;;;12.20;99.90;;;;;;5111026;27;20046;-91
2023/12/10 07:01:37;;;;;;;4.88;4.57;;;12.20;99.90;;;;;;5111370;27;20041;-89
2023/12/10 07:04:10;;;;;;;4.20;4.00;;;12.20;99.90;;;;;;5090948;27;20379;-94
2023/12/10 07:06:36;;;;;;;4.88;4.57;;;11.90;99.90;;;;;;5109262;27;20047;-96
2023/12/10 07:09:12;;;;;;;4.30;4.10;;;12.00;99.90;;;;;;5088115;27;20412;-93
2023/12/10 07:11:46;;;;;;;4.70;4.40;;;11.90;99.90;;;;;;5124046;27;20035;-95
2023/12/10 07:14:36;;;;;;;4.45;4.25;;;11.90;99.90;;;;;;5099414;27;20039;-93
2023/12/10 07:17:07;;;;;;;4.25;4.05;;;12.10;99.90;;;;;;5110504;27;20043;-91
2023/12/10 07:19:42;;;;;;;4.30;4.10;;;12.30;99.90;;;;;;5128219;27;20046;-93
2023/12/10 07:22:14;;;;;;;4.30;4.10;;;12.20;99.90;;;;;;5091056;27;20072;-94
2023/12/10 07:24:52;;;;;;;3.92;3.72;;;12.20;99.90;;;;;;5094757;27;20043;-96
2023/12/10 07:30:27;;;;;;;4.70;4.40;;;12.20;99.90;;;;;;5097234;27;20685;-95
2023/12/10 07:32:59;;;;;;;4.07;3.88;;;12.20;99.90;;;;;;5045816;27;20055;-95
2023/12/10 07:35:25;;;;;;;4.35;4.15;;;12.20;99.90;;;;;;5092786;27;20047;-89
2023/12/10 07:38:03;;;;;;;4.40;4.20;;;12.00;99.90;;;;;;5094380;27;20085;-91
2023/12/10 07:40:29;;;;;;;4.28;4.07;;;12.20;99.90;;;;;;5088604;27;20043;-94
2023/12/10 07:42:58;;;;;;;4.18;3.97;;;12.00;99.90;;;;;;5089991;27;20116;-89
2023/12/10 07:45:26;;;;;;;5.15;4.85;;;12.20;99.90;;;;;;5091314;27;20043;-89
2023/12/10 07:47:55;;;;;;;4.22;4.03;;;12.10;99.90;;;;;;5089597;27;20851;-88
2023/12/10 07:50:28;;;;;;;4.30;4.10;;;12.20;99.90;;;;;;5100431;27;20580;-94
2023/12/10 07:52:57;;;;;;;4.38;4.18;;;12.10;99.90;;;;;;5091520;27;20849;-90
2023/12/10 07:55:22;;;;;;;4.20;4.00;;;12.00;99.90;;;;;;5084170;27;20043;-89
2023/12/10 07:57:48;;;;;;;4.68;4.38;;;12.00;99.90;;;;;;5124522;27;20035;-94
2023/12/10 08:00:15;;;;;;;5.03;4.72;;;12.00;99.90;;;;;;5088146;27;20396;-95
2023/12/10 08:05:39;;;;;;;4.65;4.38;;;12.10;99.90;;;;;;5104604;27;20055;-93
2023/12/10 08:08:04;;;;;;;4.05;3.85;;;12.10;99.90;;;;;;5087433;27;21717;-90
2023/12/10 08:10:31;;;;;;;4.78;4.47;;;11.90;99.90;;;;;;5085302;27;20043;-90
2023/12/10 08:13:00;;;;;;;4.18;3.97;;;12.10;99.90;;;;;;5088065;27;20070;-94
2023/12/10 08:15:28;;;;;;;4.07;3.88;;;11.90;99.90;;;;;;5103566;27;20046;-86
2023/12/10 08:17:56;;;;;;;4.55;4.32;;;12.20;99.90;;;;;;5090462;27;20116;-94
2023/12/10 08:20:22;;;;;;;4.40;4.20;;;12.00;99.90;;;;;;5091103;27;20081;-89
2023/12/10 08:22:48;;;;;;;4.85;4.55;;;11.90;99.90;;;;;;5104887;27;20067;-88
2023/12/10 08:25:14;;;;;;;4.00;3.80;;;12.20;99.90;;;;;;5102487;27;20038;-88
2023/12/10 08:27:48;;;;;;;4.15;3.95;;;11.90;99.90;;;;;;5084563;27;20109;-92
2023/12/10 08:30:14;;;;;;;4.47;4.28;;;11.90;99.90;;;;;;5081270;27;20125;-87
2023/12/10 08:32:43;;;;;;;4.45;4.25;;;12.20;99.90;;;;;;5099887;27;20724;-92
2023/12/10 08:35:11;;;;;;;5.18;4.88;;;12.00;99.90;;;;;;5104239;27;20129;-91
2023/12/10 08:37:38;;;;;;;4.65;4.38;;;11.80;99.90;;;;;;5081774;27;20121;-90
2023/12/10 08:40:06;;;;;;;3.95;3.75;;;12.10;99.90;;;;;;5091125;27;20111;-91
2023/12/10 08:42:32;;;;;;;5.15;4.85;;;12.20;99.90;;;;;;5085749;27;20066;-89
2023/12/10 08:44:58;;;;;;;4.50;4.28;;;12.10;99.90;;;;;;5090569;27;20705;-87
2023/12/10 08:47:24;;;;;;;5.05;4.75;;;11.90;99.90;;;;;;5101971;27;20050;-92
2023/12/10 08:49:51;;;;;;;4.45;4.25;;;11.80;99.90;;;;;;5088525;27;20054;-93
2023/12/10 08:52:19;;;;;;;4.25;4.05;;;11.80;99.90;;;;;;5102202;27;20151;-90
2023/12/10 08:54:45;;;;;;;4.35;4.15;;;12.10;99.90;;;;;;5082599;27;20953;-91
2023/12/10 08:57:11;;;;;;;4.50;4.30;;;12.10;99.90;;;;;;5080184;27;20035;-91
2023/12/10 08:59:40;;;;;;;4.20;4.00;;;12.10;99.90;;;;;;5105059;27;20058;-92
2023/12/10 09:02:23;;;;;;;4.80;4.50;;;12.00;99.90;;;;;;5084127;27;20054;-93
2023/12/10 09:04:51;;;;;;;4.67;4.37;;;12.10;99.90;;;;;;5085466;27;20083;-86
2023/12/10 09:07:17;;;;;;;4.35;4.15;;;12.10;99.90;;;;;;5082438;27;20449;-92
2023/12/10 09:09:49;;;;;;;5.07;4.78;;;12.00;99.90;;;;;;5083380;27;20039;-95
2023/12/10 09:12:29;;;;;;;4.57;4.30;;;12.00;99.90;;;;;;5121282;27;20039;-89
2023/12/10 09:14:56;;;;;;;4.32;4.13;;;11.90;99.90;;;;;;5085818;27;20134;-86
2023/12/10 09:17:22;;;;;;;4.68;4.40;;;12.00;99.90;;;;;;5079868;27;20425;-89
2023/12/10 09:19:48;;;;;;;4.40;4.20;;;12.00;99.90;;;;;;5087777;27;20103;-92
2023/12/10 09:22:26;;;;;;;4.38;4.18;;;12.20;99.90;;;;;;5082224;27;21456;-92
2023/12/10 09:24:55;;;;;;;4.95;4.65;;;12.00;99.90;;;;;;5079749;27;20059;-94
2023/12/10 09:27:21;;;;;;;5.28;4.97;;;12.20;99.90;;;;;;5084830;27;20515;-92
2023/12/10 09:29:50;;;;;;;4.60;4.30;;;12.10;99.90;;;;;;5094569;28;20038;-95
2023/12/10 09:32:16;;;;;;;5.47;5.18;;;12.00;99.90;;;;;;5101247;28;20139;-88
2023/12/10 09:34:51;;;;;;;4.82;4.45;;;12.00;99.90;;;;;;5082653;28;20057;-95
2023/12/10 09:37:17;;;;;;;4.30;4.10;;;12.00;99.90;;;;;;5084315;27;20043;-91
2023/12/10 09:39:43;;;;;;;4.65;4.38;;;12.10;99.90;;;;;;5100220;28;20084;-93
2023/12/10 09:42:09;;;;;;;4.38;4.18;;;11.90;99.90;;;;;;5115241;27;20054;-93
2023/12/10 09:44:37;;;;;;;4.57;4.38;;;12.20;99.90;;;;;;5101401;28;20046;-91
2023/12/10 09:47:10;;;;;;;4.47;4.28;;;12.20;99.90;;;;;;5079656;28;20725;-92
2023/12/10 09:49:41;;;;;;;5.05;4.75;;;11.90;99.90;;;;;;5090815;28;20134;-90
2023/12/10 09:52:21;;;;;;;4.13;3.92;;;12.20;99.90;;;;;;5086107;27;20043;-95
2023/12/10 09:54:56;;;;;;;5.60;5.30;;;12.10;99.90;;;;;;5092302;27;20054;-95
2023/12/10 09:57:22;;;;;;;4.25;4.05;;;12.00;99.90;;;;;;5091503;27;20073;-93
2023/12/10 09:59:51;;;;;;;4.45;4.25;;;12.10;99.90;;;;;;5108933;27;21492;-93
2023/12/10 10:02:17;;;;;;;4.53;4.30;;;12.00;99.90;;;;;;5089997;27;20497;-87
2023/12/10 10:04:43;;;;;;;4.40;4.20;;;11.90;99.90;;;;;;5087783;27;20044;-91
2023/12/10 10:07:14;;;;;;;4.43;4.22;;;12.00;99.90;;;;;;5089126;27;21116;-91
2023/12/10 10:09:40;;;;;;;4.30;4.10;;;11.90;99.90;;;;;;5090812;27;20046;-94
2023/12/10 10:12:07;;;;;;;4.20;4.00;;;12.10;99.90;;;;;;5089039;27;20053;-87
2023/12/10 10:14:33;;;;;;;4.38;4.18;;;12.10;99.90;;;;;;5088837;27;20150;-92
2023/12/10 10:16:59;;;;;;;4.57;4.38;;;12.00;99.90;;;;;;5138860;27;20635;-92
2023/12/10 10:19:29;;;;;;;4.70;4.40;;;12.00;99.90;;;;;;5096042;27;20123;-89
2023/12/10 10:21:57;;;;;;;4.38;4.18;;;12.00;99.90;;;;;;5133590;27;20066;-92
2023/12/10 10:24:23;;;;;;;4.47;4.28;;;12.10;99.90;;;;;;5098007;27;20039;-88
2023/12/10 10:26:49;;;;;;;4.13;3.92;;;12.10;99.90;;;;;;5110243;27;20047;-90
2023/12/10 10:29:15;;;;;;;4.70;4.40;;;12.20;99.90;;;;;;5117454;27;20057;-90
2023/12/10 10:31:41;;;;;;;4.80;4.50;;;12.20;99.90;;;;;;5096883;27;20362;-88
2023/12/10 10:34:10;;;;;;;5.05;4.75;;;12.20;99.90;;;;;;5097580;27;20531;-94
2023/12/10 10:36:40;;;;;;;4.80;4.50;;;12.20;99.90;;;;;;5091756;27;20096;-91
2023/12/10 10:39:07;;;;;;;4.43;4.22;;;12.10;99.90;;;;;;5097828;27;20055;-93
2023/12/10 10:41:33;;;;;;;4.53;4.32;;;12.20;99.90;;;;;;5096152;27;20036;-90
2023/12/10 10:43:59;;;;;;;4.63;4.38;;;12.10;99.90;;;;;;5095168;27;20047;-95
2023/12/10 10:46:25;;;;;;;4.63;4.35;;;12.10;99.90;;;;;;5096689;27;20088;-87
2023/12/10 10:48:52;;;;;;;4.32;4.13;;;12.10;99.90;;;;;;5113314;27;20522;-89
2023/12/10 10:51:33;;;;;;;4.97;4.68;;;12.20;99.90;;;;;;5144320;27;20549;-93
2023/12/10 10:54:03;;;;;;;4.32;4.13;;;12.00;99.90;;;;;;5097781;27;20488;-90
2023/12/10 10:56:30;;;;;;;4.97;4.68;;;12.20;99.90;;;;;;5116512;27;20559;-92
2023/12/10 10:58:56;;;;;;;4.22;4.03;;;12.10;99.90;;;;;;5092512;27;20105;-91
2023/12/10 11:01:43;;;;;;;4.03;3.83;;;12.20;99.90;;;;;;5109268;27;20074;-93
2023/12/10 11:04:12;;;;;;;4.30;4.10;;;12.20;99.90;;;;;;5094346;27;20129;-87
2023/12/10 11:06:45;;;;;;;4.13;3.92;;;12.30;99.90;;;;;;5111214;27;20047;-90
2023/12/10 11:09:21;;;;;;;4.50;4.30;;;12.20;99.90;;;;;;5113384;27;20039;-95
2023/12/10 11:11:49;;;;;;;4.20;4.00;;;12.20;99.90;;;;;;5099395;27;20058;-91
2023/12/10 11:14:37;;;;;;;4.00;3.80;;;12.30;99.90;;;;;;5096917;27;20551;-92
2023/12/10 11:17:09;;;;;;;4.03;3.83;;;12.30;99.90;;;;;;5132627;27;20039;-90
2023/12/10 11:19:36;;;;;;;3.60;3.40;;;12.30;99.90;;;;;;5091841;27;20043;-92
2023/12/10 11:22:02;;;;;;;3.80;3.60;;;12.30;99.90;;;;;;5110813;27;20035;-91
2023/12/10 11:24:31;;;;;;;4.75;4.45;;;12.40;99.90;;;;;;5094351;27;20088;-88
2023/12/10 11:26:59;;;;;;;3.80;3.60;;;12.40;99.90;;;;;;5097021;27;20076;-95
2023/12/10 11:29:25;;;;;;;3.92;3.72;;;12.40;99.90;;;;;;5096069;27;20050;-88
2023/12/10 11:32:03;;;;;;;4.13;3.92;;;12.50;99.90;;;;;;5109768;27;20047;-96
2023/12/10 11:34:32;;;;;;;3.72;3.53;;;12.50;99.90;;;;;;5092962;27;20072;-93
2023/12/10 11:36:58;;;;;;;3.90;3.70;;;12.50;99.90;;;;;;5143402;27;20075;-93
2023/12/10 11:39:30;;;;;;;3.42;3.22;;;12.50;99.90;;;;;;5095009;27;20047;-93
2023/12/10 11:41:56;;;;;;;3.70;3.50;;;12.50;99.90;;;;;;5109400;27;20039;-90
2023/12/10 11:44:31;;;;;;;4.43;4.22;;;12.60;99.90;;;;;;5094510;27;20035;-94
2023/12/10 11:47:05;;;;;;;4.32;4.13;;;12.60;99.90;;;;;;5092363;27;20515;-90
2023/12/10 11:49:34;;;;;;;4.18;3.97;;;12.60;99.90;;;;;;5111375;27;20035;-94
2023/12/10 11:52:01;;;;;;;4.07;3.88;;;12.60;99.90;;;;;;5114716;27;20073;-93
2023/12/10 11:54:27;;;;;;;4.28;4.07;;;12.60;99.90;;;;;;5115981;27;20054;-94
2023/12/10 11:56:53;;;;;;;3.83;3.63;;;12.60;99.90;;;;;;5095646;27;20044;-91
2023/12/10 11:59:20;;;;;;;4.53;4.32;;;12.50;99.90;;;;;;5112330;27;20047;-95
2023/12/10 12:01:56;;;;;;;4.82;4.57;;;12.50;99.90;;;;;;5096082;27;20135;-96
2023/12/10 12:04:32;;;;;;;4.10;3.90;;;12.50;99.90;;;;;;5095368;27;20061;-96
2023/12/10 12:06:58;;;;;;;5.07;4.78;;;12.40;99.90;;;;;;5111293;27;20085;-91
2023/12/10 12:09:27;;;;;;;5.38;5.07;;;12.40;99.90;;;;;;5093888;27;20071;-94
2023/12/10 12:12:11;;;;;;;4.03;3.83;;;12.40;99.90;;;;;;5094985;27;20046;-96
2023/12/10 12:14:49;;;;;;;4.78;4.50;;;12.30;99.90;;;;;;5094406;27;20054;-92
2023/12/10 12:17:30;;;;;;;4.15;3.95;;;12.30;99.90;;;;;;5092087;27;20096;-91
2023/12/10 12:20:26;;;;;;;4.72;4.50;;;12.30;99.90;;;;;;5093771;27;20043;-94
2023/12/10 12:22:52;;;;;;;3.80;3.60;;;12.30;99.90;;;;;;5093004;27;20054;-89
2023/12/10 12:25:18;;;;;;;3.80;3.60;;;12.40;99.90;;;;;;5110098;27;20491;-92
2023/12/10 12:27:45;;;;;;;3.90;3.70;;;12.40;99.90;;;;;;5094965;27;20078;-93
2023/12/10 12:30:21;;;;;;;4.72;4.53;;;12.40;99.90;;;;;;5097599;27;20051;-95
2023/12/10 12:32:51;;;;;;;3.90;3.70;;;12.50;99.90;;;;;;5094003;27;20044;-94
2023/12/10 12:35:46;;;;;;;4.35;4.15;;;12.50;99.90;;;;;;5094283;27;20104;-93
2023/12/10 12:38:35;;;;;;;4.00;3.80;;;12.40;99.90;;;;;;5107816;27;20058;-94
2023/12/10 12:41:01;;;;;;;4.10;3.90;;;12.40;99.90;;;;;;5112763;27;20134;-87
2023/12/10 12:43:27;;;;;;;5.22;4.93;;;12.40;99.90;;;;;;5090914;27;20183;-90
2023/12/10 12:45:53;;;;;;;4.20;4.00;;;12.40;99.90;;;;;;5093058;27;20056;-90
2023/12/10 12:48:19;;;;;;;4.00;3.80;;;12.30;99.90;;;;;;5094272;27;20039;-91
2023/12/10 12:50:45;;;;;;;4.07;3.88;;;12.30;99.90;;;;;;5092305;27;20155;-88
2023/12/10 12:53:11;;;;;;;4.68;4.43;;;12.30;99.90;;;;;;5088172;27;20050;-91
2023/12/10 12:55:37;;;;;;;5.18;4.88;;;12.20;99.90;;;;;;5089998;27;20050;-90
2023/12/10 12:58:03;;;;;;;5.20;4.90;;;12.20;99.90;;;;;;5090666;27;20051;-94
2023/12/10 13:00:29;;;;;;;4.20;4.00;;;12.30;99.90;;;;;;5095110;27;20039;-93
2023/12/10 13:02:56;;;;;;;5.03;4.72;;;12.20;99.90;;;;;;5108162;27;20035;-92
2023/12/10 13:05:22;;;;;;;4.85;4.60;;;12.30;99.90;;;;;;5089791;27;20047;-90
2023/12/10 13:07:51;;;;;;;4.13;3.92;;;12.30;99.90;;;;;;5091541;27;20042;-92
2023/12/10 13:10:20;;;;;;;6.18;5.88;;;12.30;99.90;;;;;;5094605;27;20070;-91
2023/12/10 13:12:46;;;;;;;3.88;3.67;;;12.30;99.90;;;;;;5094897;27;20077;-95
2023/12/10 13:15:11;;;;;;;4.10;3.90;;;12.20;99.90;;;;;;5093568;27;20484;-92
2023/12/10 13:17:40;;;;;;;4.53;4.32;;;12.20;99.90;;;;;;5094630;27;20032;-91
2023/12/10 13:20:07;;;;;;;5.30;5.00;;;12.20;99.90;;;;;;5091442;27;20567;-90
2023/12/10 13:22:33;;;;;;;4.03;3.83;;;12.20;99.90;;;;;;5092371;27;20541;-92
2023/12/10 13:25:01;;;;;;;5.38;5.07;;;12.20;99.90;;;;;;5092557;27;20112;-92
2023/12/10 13:27:27;;;;;;;5.18;4.88;;;12.20;99.90;;;;;;5096805;27;20130;-93
2023/12/10 13:29:53;;;;;;;3.90;3.70;;;12.20;99.90;;;;;;5095010;27;20392;-92
2023/12/10 13:32:19;;;;;;;3.92;3.72;;;12.20;99.90;;;;;;5094489;28;20047;-92
2023/12/10 13:34:45;;;;;;;4.93;4.63;;;12.20;99.90;;;;;;5098088;28;20118;-93
2023/12/10 13:37:12;;;;;;;4.10;3.90;;;12.10;99.90;;;;;;5096210;28;20035;-93
2023/12/10 13:39:38;;;;;;;3.85;3.65;;;12.20;99.90;;;;;;5097449;28;20053;-94
2023/12/10 13:42:06;;;;;;;4.53;4.32;;;12.10;99.90;;;;;;5095856;28;20035;-95
2023/12/10 13:44:32;;;;;;;4.53;4.32;;;12.20;99.90;;;;;;5095881;28;20122;-94
2023/12/10 13:46:58;;;;;;;3.63;3.42;;;12.20;99.90;;;;;;5092658;28;20050;-88
2023/12/10 13:49:24;;;;;;;3.63;3.42;;;12.20;99.90;;;;;;5108095;28;20423;-90